sensor_id;sensor_type;location;lat;lon;timestamp;P1;durP1;ratioP1;P2;durP2;ratioP2
75760;SDS011;64373;46.136;8.830;2024-01-06T00:00:34;1.02;;;0.77;;
75760;SDS011;64373;46.136;8.830;2024-01-06T00:03:00;0.80;;;0.50;;
75760;SDS011;64373;46.136;8.830;2024-01-06T00:05:25;0.70;;;0.50;;
75760;SDS011;64373;46.136;8.830;2024-01-06T00:07:51;0.68;;;0.47;;
75760;SDS011;64373;46.136;8.830;2024-01-06T00:10:16;1.10;;;0.63;;
75760;SDS011;64373;46.136;8.830;2024-01-06T00:12:42;1.10;;;0.60;;
75760;SDS011;64373;46.136;8.830;2024-01-06T00:15:08;1.05;;;0.60;;
75760;SDS011;64373;46.136;8.830;2024-01-06T00:17:33;0.70;;;0.50;;
75760;SDS011;64373;46.136;8.830;2024-01-06T00:19:59;1.13;;;0.32;;
75760;SDS011;64373;46.136;8.830;2024-01-06T00:22:27;0.60;;;0.50;;
75760;SDS011;64373;46.136;8.830;2024-01-06T00:24:52;5.25;;;0.90;;
75760;SDS011;64373;46.136;8.830;2024-01-06T00:27:18;0.65;;;0.52;;
75760;SDS011;64373;46.136;8.830;2024-01-06T00:29:43;1.58;;;0.68;;
75760;SDS011;64373;46.136;8.830;2024-01-06T00:32:09;0.88;;;0.80;;
75760;SDS011;64373;46.136;8.830;2024-01-06T00:34:34;1.45;;;0.80;;
75760;SDS011;64373;46.136;8.830;2024-01-06T00:36:59;5.88;;;1.50;;
75760;SDS011;64373;46.136;8.830;2024-01-06T00:39:25;9.20;;;1.98;;
75760;SDS011;64373;46.136;8.830;2024-01-06T00:41:50;0.73;;;0.60;;
75760;SDS011;64373;46.136;8.830;2024-01-06T00:44:16;1.98;;;0.90;;
75760;SDS011;64373;46.136;8.830;2024-01-06T00:46:41;0.77;;;0.70;;
75760;SDS011;64373;46.136;8.830;2024-01-06T00:49:07;0.98;;;0.90;;
75760;SDS011;64373;46.136;8.830;2024-01-06T00:51:32;1.25;;;0.80;;
75760;SDS011;64373;46.136;8.830;2024-01-06T00:53:58;0.88;;;0.70;;
75760;SDS011;64373;46.136;8.830;2024-01-06T00:56:23;0.52;;;0.50;;
75760;SDS011;64373;46.136;8.830;2024-01-06T00:58:49;4.50;;;1.00;;
75760;SDS011;64373;46.136;8.830;2024-01-06T01:01:15;26.85;;;3.83;;
75760;SDS011;64373;46.136;8.830;2024-01-06T01:03:40;0.80;;;0.80;;
75760;SDS011;64373;46.136;8.830;2024-01-06T01:06:05;3.10;;;0.98;;
75760;SDS011;64373;46.136;8.830;2024-01-06T01:08:31;1.77;;;1.20;;
75760;SDS011;64373;46.136;8.830;2024-01-06T01:10:57;2.08;;;1.38;;
75760;SDS011;64373;46.136;8.830;2024-01-06T01:13:23;1.20;;;1.10;;
75760;SDS011;64373;46.136;8.830;2024-01-06T01:15:48;0.75;;;0.68;;
75760;SDS011;64373;46.136;8.830;2024-01-06T01:18:14;34.45;;;3.70;;
75760;SDS011;64373;46.136;8.830;2024-01-06T01:20:40;0.75;;;0.73;;
75760;SDS011;64373;46.136;8.830;2024-01-06T01:23:08;0.73;;;0.52;;
75760;SDS011;64373;46.136;8.830;2024-01-06T01:25:34;2.67;;;0.70;;
75760;SDS011;64373;46.136;8.830;2024-01-06T01:27:59;2.08;;;1.13;;
75760;SDS011;64373;46.136;8.830;2024-01-06T01:30:25;0.70;;;0.70;;
75760;SDS011;64373;46.136;8.830;2024-01-06T01:32:50;0.60;;;0.50;;
75760;SDS011;64373;46.136;8.830;2024-01-06T01:35:16;1.20;;;1.00;;
75760;SDS011;64373;46.136;8.830;2024-01-06T01:37:41;1.15;;;0.90;;
75760;SDS011;64373;46.136;8.830;2024-01-06T01:40:10;2.15;;;0.90;;
75760;SDS011;64373;46.136;8.830;2024-01-06T01:42:36;20.80;;;2.55;;
75760;SDS011;64373;46.136;8.830;2024-01-06T01:45:03;16.27;;;2.25;;
75760;SDS011;64373;46.136;8.830;2024-01-06T01:47:29;35.45;;;3.70;;
75760;SDS011;64373;46.136;8.830;2024-01-06T01:49:55;13.60;;;1.73;;
75760;SDS011;64373;46.136;8.830;2024-01-06T01:52:21;0.60;;;0.50;;
75760;SDS011;64373;46.136;8.830;2024-01-06T01:54:47;17.15;;;3.10;;
75760;SDS011;64373;46.136;8.830;2024-01-06T01:57:13;68.43;;;4.88;;
75760;SDS011;64373;46.136;8.830;2024-01-06T01:59:39;0.80;;;0.70;;
75760;SDS011;64373;46.136;8.830;2024-01-06T02:02:05;2.22;;;0.77;;
75760;SDS011;64373;46.136;8.830;2024-01-06T02:04:31;1.13;;;0.60;;
75760;SDS011;64373;46.136;8.830;2024-01-06T02:06:57;2.90;;;0.80;;
75760;SDS011;64373;46.136;8.830;2024-01-06T02:09:22;7.30;;;1.60;;
75760;SDS011;64373;46.136;8.830;2024-01-06T02:11:52;1.00;;;0.90;;
75760;SDS011;64373;46.136;8.830;2024-01-06T02:14:18;1.75;;;0.95;;
75760;SDS011;64373;46.136;8.830;2024-01-06T02:16:43;6.28;;;1.50;;
75760;SDS011;64373;46.136;8.830;2024-01-06T02:19:09;3.72;;;1.38;;
75760;SDS011;64373;46.136;8.830;2024-01-06T02:21:36;1.42;;;0.88;;
75760;SDS011;64373;46.136;8.830;2024-01-06T02:24:06;5.18;;;1.15;;
75760;SDS011;64373;46.136;8.830;2024-01-06T02:26:32;11.32;;;2.03;;
75760;SDS011;64373;46.136;8.830;2024-01-06T02:28:57;3.85;;;1.50;;
75760;SDS011;64373;46.136;8.830;2024-01-06T02:31:23;1.20;;;1.10;;
75760;SDS011;64373;46.136;8.830;2024-01-06T02:33:48;0.98;;;0.90;;
75760;SDS011;64373;46.136;8.830;2024-01-06T02:36:14;1.05;;;0.68;;
75760;SDS011;64373;46.136;8.830;2024-01-06T02:38:39;0.32;;;0.30;;
75760;SDS011;64373;46.136;8.830;2024-01-06T02:41:05;0.30;;;0.30;;
75760;SDS011;64373;46.136;8.830;2024-01-06T02:43:30;0.85;;;0.50;;
75760;SDS011;64373;46.136;8.830;2024-01-06T02:45:56;1.10;;;0.70;;
75760;SDS011;64373;46.136;8.830;2024-01-06T02:48:21;0.75;;;0.50;;
75760;SDS011;64373;46.136;8.830;2024-01-06T02:50:46;0.55;;;0.55;;
75760;SDS011;64373;46.136;8.830;2024-01-06T02:53:12;0.90;;;0.60;;
75760;SDS011;64373;46.136;8.830;2024-01-06T02:55:38;0.50;;;0.50;;
75760;SDS011;64373;46.136;8.830;2024-01-06T02:58:04;0.90;;;0.55;;
75760;SDS011;64373;46.136;8.830;2024-01-06T03:00:29;0.50;;;0.40;;
75760;SDS011;64373;46.136;8.830;2024-01-06T03:02:55;2.50;;;0.70;;
75760;SDS011;64373;46.136;8.830;2024-01-06T03:05:20;1.63;;;0.77;;
75760;SDS011;64373;46.136;8.830;2024-01-06T03:07:46;17.67;;;2.88;;
75760;SDS011;64373;46.136;8.830;2024-01-06T03:10:11;0.88;;;0.68;;
75760;SDS011;64373;46.136;8.830;2024-01-06T03:12:37;0.93;;;0.63;;
75760;SDS011;64373;46.136;8.830;2024-01-06T03:15:02;14.77;;;2.20;;
75760;SDS011;64373;46.136;8.830;2024-01-06T03:17:28;1.75;;;0.85;;
75760;SDS011;64373;46.136;8.830;2024-01-06T03:19:54;3.13;;;0.93;;
75760;SDS011;64373;46.136;8.830;2024-01-06T03:22:20;0.93;;;0.80;;
75760;SDS011;64373;46.136;8.830;2024-01-06T03:24:45;1.08;;;0.68;;
75760;SDS011;64373;46.136;8.830;2024-01-06T03:27:11;0.93;;;0.75;;
75760;SDS011;64373;46.136;8.830;2024-01-06T03:29:37;7.90;;;1.35;;
75760;SDS011;64373;46.136;8.830;2024-01-06T03:32:03;1.90;;;1.13;;
75760;SDS011;64373;46.136;8.830;2024-01-06T03:34:29;8.32;;;1.92;;
75760;SDS011;64373;46.136;8.830;2024-01-06T03:36:54;3.15;;;1.33;;
75760;SDS011;64373;46.136;8.830;2024-01-06T03:39:20;24.70;;;3.78;;
75760;SDS011;64373;46.136;8.830;2024-01-06T03:41:45;1.15;;;1.05;;
75760;SDS011;64373;46.136;8.830;2024-01-06T03:44:11;2.38;;;1.17;;
75760;SDS011;64373;46.136;8.830;2024-01-06T03:46:37;3.95;;;1.30;;
75760;SDS011;64373;46.136;8.830;2024-01-06T03:49:02;3.75;;;1.33;;
75760;SDS011;64373;46.136;8.830;2024-01-06T03:51:28;1.77;;;1.35;;
75760;SDS011;64373;46.136;8.830;2024-01-06T03:53:54;1.63;;;1.20;;
75760;SDS011;64373;46.136;8.830;2024-01-06T03:56:19;7.25;;;2.00;;
75760;SDS011;64373;46.136;8.830;2024-01-06T03:58:45;1.63;;;1.50;;
75760;SDS011;64373;46.136;8.830;2024-01-06T04:01:11;3.05;;;2.00;;
75760;SDS011;64373;46.136;8.830;2024-01-06T04:03:37;5.75;;;2.38;;
75760;SDS011;64373;46.136;8.830;2024-01-06T04:06:05;2.70;;;1.80;;
75760;SDS011;64373;46.136;8.830;2024-01-06T04:08:31;2.95;;;1.80;;
75760;SDS011;64373;46.136;8.830;2024-01-06T04:10:56;3.45;;;2.30;;
75760;SDS011;64373;46.136;8.830;2024-01-06T04:13:22;3.22;;;2.10;;
75760;SDS011;64373;46.136;8.830;2024-01-06T04:15:50;1.80;;;1.45;;
75760;SDS011;64373;46.136;8.830;2024-01-06T04:18:16;2.28;;;1.48;;
75760;SDS011;64373;46.136;8.830;2024-01-06T04:20:41;2.33;;;1.20;;
75760;SDS011;64373;46.136;8.830;2024-01-06T04:23:07;2.10;;;1.40;;
75760;SDS011;64373;46.136;8.830;2024-01-06T04:25:32;0.95;;;0.85;;
75760;SDS011;64373;46.136;8.830;2024-01-06T04:27:58;1.10;;;1.00;;
75760;SDS011;64373;46.136;8.830;2024-01-06T04:30:23;1.40;;;1.08;;
75760;SDS011;64373;46.136;8.830;2024-01-06T04:32:51;1.25;;;1.02;;
75760;SDS011;64373;46.136;8.830;2024-01-06T04:35:16;1.90;;;1.50;;
75760;SDS011;64373;46.136;8.830;2024-01-06T04:37:42;2.22;;;1.90;;
75760;SDS011;64373;46.136;8.830;2024-01-06T04:40:08;1.80;;;1.33;;
75760;SDS011;64373;46.136;8.830;2024-01-06T04:42:33;2.28;;;1.58;;
75760;SDS011;64373;46.136;8.830;2024-01-06T04:44:59;1.75;;;1.42;;
75760;SDS011;64373;46.136;8.830;2024-01-06T04:47:24;1.33;;;1.13;;
75760;SDS011;64373;46.136;8.830;2024-01-06T04:49:50;2.25;;;1.85;;
75760;SDS011;64373;46.136;8.830;2024-01-06T04:52:15;1.77;;;1.25;;
75760;SDS011;64373;46.136;8.830;2024-01-06T04:54:41;2.40;;;1.60;;
75760;SDS011;64373;46.136;8.830;2024-01-06T04:57:06;2.75;;;1.75;;
75760;SDS011;64373;46.136;8.830;2024-01-06T04:59:32;2.10;;;1.50;;
75760;SDS011;64373;46.136;8.830;2024-01-06T05:01:57;1.75;;;1.60;;
75760;SDS011;64373;46.136;8.830;2024-01-06T05:04:23;1.30;;;1.20;;
75760;SDS011;64373;46.136;8.830;2024-01-06T05:06:50;2.10;;;1.70;;
75760;SDS011;64373;46.136;8.830;2024-01-06T05:09:16;1.98;;;1.15;;
75760;SDS011;64373;46.136;8.830;2024-01-06T05:11:45;1.50;;;1.40;;
75760;SDS011;64373;46.136;8.830;2024-01-06T05:14:10;1.40;;;1.10;;
75760;SDS011;64373;46.136;8.830;2024-01-06T05:16:36;1.88;;;1.30;;
75760;SDS011;64373;46.136;8.830;2024-01-06T05:19:02;3.13;;;1.90;;
75760;SDS011;64373;46.136;8.830;2024-01-06T05:21:27;1.63;;;1.40;;
75760;SDS011;64373;46.136;8.830;2024-01-06T05:23:53;1.98;;;1.55;;
75760;SDS011;64373;46.136;8.830;2024-01-06T05:26:19;2.20;;;1.70;;
75760;SDS011;64373;46.136;8.830;2024-01-06T05:28:44;1.48;;;1.23;;
75760;SDS011;64373;46.136;8.830;2024-01-06T05:31:12;1.05;;;0.82;;
75760;SDS011;64373;46.136;8.830;2024-01-06T05:33:38;1.40;;;1.30;;
75760;SDS011;64373;46.136;8.830;2024-01-06T05:36:04;1.15;;;0.90;;
75760;SDS011;64373;46.136;8.830;2024-01-06T05:38:29;0.70;;;0.70;;
75760;SDS011;64373;46.136;8.830;2024-01-06T05:40:55;1.05;;;0.85;;
75760;SDS011;64373;46.136;8.830;2024-01-06T05:43:21;0.88;;;0.70;;
75760;SDS011;64373;46.136;8.830;2024-01-06T05:45:46;0.70;;;0.60;;
75760;SDS011;64373;46.136;8.830;2024-01-06T05:48:12;0.77;;;0.60;;
75760;SDS011;64373;46.136;8.830;2024-01-06T05:50:38;1.00;;;0.80;;
75760;SDS011;64373;46.136;8.830;2024-01-06T05:53:06;1.08;;;0.90;;
75760;SDS011;64373;46.136;8.830;2024-01-06T05:55:32;1.13;;;0.63;;
75760;SDS011;64373;46.136;8.830;2024-01-06T05:57:58;1.00;;;0.60;;
75760;SDS011;64373;46.136;8.830;2024-01-06T06:00:24;0.70;;;0.50;;
75760;SDS011;64373;46.136;8.830;2024-01-06T06:02:49;0.40;;;0.35;;
75760;SDS011;64373;46.136;8.830;2024-01-06T06:05:15;0.30;;;0.30;;
75760;SDS011;64373;46.136;8.830;2024-01-06T06:07:40;0.45;;;0.40;;
75760;SDS011;64373;46.136;8.830;2024-01-06T06:10:08;1.58;;;0.30;;
75760;SDS011;64373;46.136;8.830;2024-01-06T06:12:34;0.50;;;0.45;;
75760;SDS011;64373;46.136;8.830;2024-01-06T06:15:00;0.60;;;0.45;;
75760;SDS011;64373;46.136;8.830;2024-01-06T06:17:25;1.23;;;0.40;;
75760;SDS011;64373;46.136;8.830;2024-01-06T06:19:51;0.40;;;0.40;;
75760;SDS011;64373;46.136;8.830;2024-01-06T06:22:16;0.40;;;0.30;;
75760;SDS011;64373;46.136;8.830;2024-01-06T06:24:42;0.20;;;0.20;;
75760;SDS011;64373;46.136;8.830;2024-01-06T06:27:08;0.98;;;0.68;;
75760;SDS011;64373;46.136;8.830;2024-01-06T06:29:33;1.90;;;1.27;;
75760;SDS011;64373;46.136;8.830;2024-01-06T06:31:59;1.63;;;1.05;;
75760;SDS011;64373;46.136;8.830;2024-01-06T06:34:25;0.90;;;0.75;;
75760;SDS011;64373;46.136;8.830;2024-01-06T06:36:50;0.93;;;0.60;;
75760;SDS011;64373;46.136;8.830;2024-01-06T06:39:16;0.95;;;0.63;;
75760;SDS011;64373;46.136;8.830;2024-01-06T06:41:41;1.83;;;0.90;;
75760;SDS011;64373;46.136;8.830;2024-01-06T06:44:07;1.52;;;1.13;;
75760;SDS011;64373;46.136;8.830;2024-01-06T06:46:32;3.25;;;1.40;;
75760;SDS011;64373;46.136;8.830;2024-01-06T06:48:57;3.05;;;1.70;;
75760;SDS011;64373;46.136;8.830;2024-01-06T06:51:23;1.40;;;1.13;;
75760;SDS011;64373;46.136;8.830;2024-01-06T06:53:51;1.48;;;1.08;;
75760;SDS011;64373;46.136;8.830;2024-01-06T06:56:17;1.17;;;0.70;;
75760;SDS011;64373;46.136;8.830;2024-01-06T06:58:43;0.80;;;0.60;;
75760;SDS011;64373;46.136;8.830;2024-01-06T07:01:08;0.80;;;0.68;;
75760;SDS011;64373;46.136;8.830;2024-01-06T07:03:33;0.77;;;0.60;;
75760;SDS011;64373;46.136;8.830;2024-01-06T07:05:59;0.63;;;0.50;;
75760;SDS011;64373;46.136;8.830;2024-01-06T07:08:24;1.35;;;0.70;;
75760;SDS011;64373;46.136;8.830;2024-01-06T07:10:50;1.75;;;1.10;;
75760;SDS011;64373;46.136;8.830;2024-01-06T07:13:15;1.08;;;0.85;;
75760;SDS011;64373;46.136;8.830;2024-01-06T07:15:41;1.10;;;1.00;;
75760;SDS011;64373;46.136;8.830;2024-01-06T07:18:07;0.77;;;0.73;;
75760;SDS011;64373;46.136;8.830;2024-01-06T07:20:32;2.83;;;1.77;;
75760;SDS011;64373;46.136;8.830;2024-01-06T07:22:58;3.17;;;2.08;;
75760;SDS011;64373;46.136;8.830;2024-01-06T07:25:23;1.88;;;1.35;;
75760;SDS011;64373;46.136;8.830;2024-01-06T07:27:49;1.80;;;1.55;;
75760;SDS011;64373;46.136;8.830;2024-01-06T07:30:14;1.67;;;1.27;;
75760;SDS011;64373;46.136;8.830;2024-01-06T07:32:40;2.03;;;1.40;;
75760;SDS011;64373;46.136;8.830;2024-01-06T07:35:05;1.17;;;0.90;;
75760;SDS011;64373;46.136;8.830;2024-01-06T07:37:31;1.27;;;1.02;;
75760;SDS011;64373;46.136;8.830;2024-01-06T07:39:57;0.88;;;0.80;;
75760;SDS011;64373;46.136;8.830;2024-01-06T07:42:22;0.60;;;0.50;;
75760;SDS011;64373;46.136;8.830;2024-01-06T07:44:48;0.60;;;0.43;;
75760;SDS011;64373;46.136;8.830;2024-01-06T07:47:13;0.68;;;0.30;;
75760;SDS011;64373;46.136;8.830;2024-01-06T07:49:39;0.73;;;0.20;;
75760;SDS011;64373;46.136;8.830;2024-01-06T07:52:05;0.47;;;0.30;;
75760;SDS011;64373;46.136;8.830;2024-01-06T07:54:31;0.20;;;0.10;;
75760;SDS011;64373;46.136;8.830;2024-01-06T07:56:56;0.30;;;0.20;;
75760;SDS011;64373;46.136;8.830;2024-01-06T07:59:22;0.70;;;0.20;;
75760;SDS011;64373;46.136;8.830;2024-01-06T08:01:47;0.63;;;0.45;;
75760;SDS011;64373;46.136;8.830;2024-01-06T08:04:13;0.80;;;0.68;;
75760;SDS011;64373;46.136;8.830;2024-01-06T08:06:38;1.63;;;0.88;;
75760;SDS011;64373;46.136;8.830;2024-01-06T08:09:04;0.70;;;0.70;;
75760;SDS011;64373;46.136;8.830;2024-01-06T08:11:29;0.80;;;0.60;;
75760;SDS011;64373;46.136;8.830;2024-01-06T08:13:55;0.57;;;0.50;;
75760;SDS011;64373;46.136;8.830;2024-01-06T08:16:20;0.55;;;0.50;;
75760;SDS011;64373;46.136;8.830;2024-01-06T08:18:46;0.98;;;0.63;;
75760;SDS011;64373;46.136;8.830;2024-01-06T08:21:12;0.55;;;0.47;;
75760;SDS011;64373;46.136;8.830;2024-01-06T08:23:37;0.50;;;0.50;;
75760;SDS011;64373;46.136;8.830;2024-01-06T08:26:03;0.40;;;0.40;;
75760;SDS011;64373;46.136;8.830;2024-01-06T08:28:29;0.43;;;0.40;;
75760;SDS011;64373;46.136;8.830;2024-01-06T08:30:54;0.90;;;0.40;;
75760;SDS011;64373;46.136;8.830;2024-01-06T08:33:20;0.30;;;0.25;;
75760;SDS011;64373;46.136;8.830;2024-01-06T08:35:46;0.47;;;0.30;;
75760;SDS011;64373;46.136;8.830;2024-01-06T08:38:11;0.25;;;0.25;;
75760;SDS011;64373;46.136;8.830;2024-01-06T08:40:37;0.20;;;0.20;;
75760;SDS011;64373;46.136;8.830;2024-01-06T08:43:03;0.30;;;0.30;;
75760;SDS011;64373;46.136;8.830;2024-01-06T08:45:28;0.47;;;0.30;;
75760;SDS011;64373;46.136;8.830;2024-01-06T08:47:54;0.70;;;0.40;;
75760;SDS011;64373;46.136;8.830;2024-01-06T08:50:20;1.10;;;0.45;;
75760;SDS011;64373;46.136;8.830;2024-01-06T08:52:45;0.40;;;0.40;;
75760;SDS011;64373;46.136;8.830;2024-01-06T08:55:11;0.55;;;0.55;;
75760;SDS011;64373;46.136;8.830;2024-01-06T08:57:36;1.10;;;0.70;;
75760;SDS011;64373;46.136;8.830;2024-01-06T09:00:02;2.25;;;1.50;;
75760;SDS011;64373;46.136;8.830;2024-01-06T09:02:31;3.03;;;1.88;;
75760;SDS011;64373;46.136;8.830;2024-01-06T09:04:56;1.20;;;1.10;;
75760;SDS011;64373;46.136;8.830;2024-01-06T09:07:22;1.83;;;1.42;;
75760;SDS011;64373;46.136;8.830;2024-01-06T09:09:47;1.23;;;1.10;;
75760;SDS011;64373;46.136;8.830;2024-01-06T09:12:13;1.13;;;0.90;;
75760;SDS011;64373;46.136;8.830;2024-01-06T09:14:38;0.80;;;0.77;;
75760;SDS011;64373;46.136;8.830;2024-01-06T09:17:04;0.90;;;0.80;;
75760;SDS011;64373;46.136;8.830;2024-01-06T09:19:29;1.45;;;0.93;;
75760;SDS011;64373;46.136;8.830;2024-01-06T09:21:56;1.35;;;0.90;;
75760;SDS011;64373;46.136;8.830;2024-01-06T09:24:21;1.80;;;1.40;;
75760;SDS011;64373;46.136;8.830;2024-01-06T09:26:47;1.35;;;1.20;;
75760;SDS011;64373;46.136;8.830;2024-01-06T09:29:14;2.22;;;1.40;;
75760;SDS011;64373;46.136;8.830;2024-01-06T09:31:41;1.92;;;1.42;;
75760;SDS011;64373;46.136;8.830;2024-01-06T09:34:08;1.60;;;1.50;;
75760;SDS011;64373;46.136;8.830;2024-01-06T09:36:34;2.35;;;2.10;;
75760;SDS011;64373;46.136;8.830;2024-01-06T09:39:00;3.55;;;1.77;;
75760;SDS011;64373;46.136;8.830;2024-01-06T09:41:25;2.17;;;1.75;;
75760;SDS011;64373;46.136;8.830;2024-01-06T09:43:51;1.75;;;1.30;;
75760;SDS011;64373;46.136;8.830;2024-01-06T09:46:26;2.40;;;1.23;;
75760;SDS011;64373;46.136;8.830;2024-01-06T09:48:54;2.13;;;1.20;;
75760;SDS011;64373;46.136;8.830;2024-01-06T09:51:21;1.83;;;1.25;;
75760;SDS011;64373;46.136;8.830;2024-01-06T09:53:49;1.13;;;0.93;;
75760;SDS011;64373;46.136;8.830;2024-01-06T09:56:24;1.63;;;0.90;;
75760;SDS011;64373;46.136;8.830;2024-01-06T09:58:53;4.03;;;2.10;;
75760;SDS011;64373;46.136;8.830;2024-01-06T10:01:19;3.95;;;2.38;;
75760;SDS011;64373;46.136;8.830;2024-01-06T10:03:45;2.90;;;2.30;;
75760;SDS011;64373;46.136;8.830;2024-01-06T10:06:11;2.60;;;2.00;;
75760;SDS011;64373;46.136;8.830;2024-01-06T10:08:38;1.98;;;1.42;;
75760;SDS011;64373;46.136;8.830;2024-01-06T10:11:05;2.70;;;2.17;;
75760;SDS011;64373;46.136;8.830;2024-01-06T10:13:33;4.22;;;2.95;;
75760;SDS011;64373;46.136;8.830;2024-01-06T10:15:58;3.53;;;2.45;;
75760;SDS011;64373;46.136;8.830;2024-01-06T10:18:24;3.92;;;2.90;;
75760;SDS011;64373;46.136;8.830;2024-01-06T10:20:52;4.88;;;3.55;;
75760;SDS011;64373;46.136;8.830;2024-01-06T10:23:18;5.80;;;3.88;;
75760;SDS011;64373;46.136;8.830;2024-01-06T10:25:44;2.72;;;1.90;;
75760;SDS011;64373;46.136;8.830;2024-01-06T10:28:12;3.53;;;2.22;;
75760;SDS011;64373;46.136;8.830;2024-01-06T10:30:39;2.63;;;1.83;;
75760;SDS011;64373;46.136;8.830;2024-01-06T10:33:08;2.47;;;1.75;;
75760;SDS011;64373;46.136;8.830;2024-01-06T10:35:35;2.03;;;1.60;;
75760;SDS011;64373;46.136;8.830;2024-01-06T10:38:01;3.75;;;2.85;;
75760;SDS011;64373;46.136;8.830;2024-01-06T10:40:28;3.63;;;2.80;;
75760;SDS011;64373;46.136;8.830;2024-01-06T10:42:54;4.40;;;2.83;;
75760;SDS011;64373;46.136;8.830;2024-01-06T10:45:22;4.40;;;3.08;;
75760;SDS011;64373;46.136;8.830;2024-01-06T10:47:48;3.47;;;2.53;;
75760;SDS011;64373;46.136;8.830;2024-01-06T10:50:16;3.30;;;2.75;;
75760;SDS011;64373;46.136;8.830;2024-01-06T10:52:42;4.45;;;2.72;;
75760;SDS011;64373;46.136;8.830;2024-01-06T10:55:08;3.65;;;2.70;;
75760;SDS011;64373;46.136;8.830;2024-01-06T10:57:35;3.83;;;2.55;;
75760;SDS011;64373;46.136;8.830;2024-01-06T11:00:03;3.08;;;2.38;;
75760;SDS011;64373;46.136;8.830;2024-01-06T11:02:31;2.30;;;1.65;;
75760;SDS011;64373;46.136;8.830;2024-01-06T11:04:56;2.67;;;1.85;;
75760;SDS011;64373;46.136;8.830;2024-01-06T11:07:23;1.33;;;1.10;;
75760;SDS011;64373;46.136;8.830;2024-01-06T11:09:50;0.40;;;0.40;;
75760;SDS011;64373;46.136;8.830;2024-01-06T11:12:20;0.70;;;0.70;;
75760;SDS011;64373;46.136;8.830;2024-01-06T11:14:46;1.70;;;0.80;;
75760;SDS011;64373;46.136;8.830;2024-01-06T11:17:12;0.90;;;0.60;;
75760;SDS011;64373;46.136;8.830;2024-01-06T11:25:04;0.70;;;0.60;;
75760;SDS011;64373;46.136;8.830;2024-01-06T11:27:32;0.95;;;0.70;;
75760;SDS011;64373;46.136;8.830;2024-01-06T11:29:58;0.70;;;0.60;;
75760;SDS011;64373;46.136;8.830;2024-01-06T11:32:31;1.20;;;0.70;;
75760;SDS011;64373;46.136;8.830;2024-01-06T11:35:08;0.85;;;0.80;;
75760;SDS011;64373;46.136;8.830;2024-01-06T11:40:10;1.17;;;0.90;;
75760;SDS011;64373;46.136;8.830;2024-01-06T11:42:41;1.00;;;0.90;;
75760;SDS011;64373;46.136;8.830;2024-01-06T11:45:07;1.63;;;0.77;;
75760;SDS011;64373;46.136;8.830;2024-01-06T11:47:33;1.17;;;0.55;;
75760;SDS011;64373;46.136;8.830;2024-01-06T11:50:02;0.43;;;0.43;;
75760;SDS011;64373;46.136;8.830;2024-01-06T11:52:31;1.10;;;0.80;;
75760;SDS011;64373;46.136;8.830;2024-01-06T11:54:57;0.70;;;0.60;;
75760;SDS011;64373;46.136;8.830;2024-01-06T11:57:25;1.35;;;0.85;;
75760;SDS011;64373;46.136;8.830;2024-01-06T11:59:54;0.98;;;0.80;;
75760;SDS011;64373;46.136;8.830;2024-01-06T12:02:19;1.98;;;1.10;;
75760;SDS011;64373;46.136;8.830;2024-01-06T12:04:51;1.50;;;1.08;;
75760;SDS011;64373;46.136;8.830;2024-01-06T12:07:17;1.63;;;1.10;;
75760;SDS011;64373;46.136;8.830;2024-01-06T12:09:45;7.05;;;3.75;;
75760;SDS011;64373;46.136;8.830;2024-01-06T12:12:14;4.18;;;2.30;;
75760;SDS011;64373;46.136;8.830;2024-01-06T12:14:40;1.85;;;1.30;;
75760;SDS011;64373;46.136;8.830;2024-01-06T12:17:07;2.05;;;1.40;;
75760;SDS011;64373;46.136;8.830;2024-01-06T12:19:33;2.03;;;0.73;;
75760;SDS011;64373;46.136;8.830;2024-01-06T12:21:59;1.45;;;0.68;;
75760;SDS011;64373;46.136;8.830;2024-01-06T12:24:26;0.77;;;0.60;;
75760;SDS011;64373;46.136;8.830;2024-01-06T12:26:52;0.60;;;0.40;;
75760;SDS011;64373;46.136;8.830;2024-01-06T12:29:20;1.55;;;0.60;;
75760;SDS011;64373;46.136;8.830;2024-01-06T12:31:46;0.82;;;0.40;;
75760;SDS011;64373;46.136;8.830;2024-01-06T12:34:12;1.08;;;0.43;;
75760;SDS011;64373;46.136;8.830;2024-01-06T12:36:37;0.63;;;0.40;;
75760;SDS011;64373;46.136;8.830;2024-01-06T12:39:04;1.13;;;0.70;;
75760;SDS011;64373;46.136;8.830;2024-01-06T12:41:30;1.10;;;0.60;;
75760;SDS011;64373;46.136;8.830;2024-01-06T12:43:58;0.30;;;0.20;;
75760;SDS011;64373;46.136;8.830;2024-01-06T12:46:25;0.38;;;0.32;;
75760;SDS011;64373;46.136;8.830;2024-01-06T12:48:51;0.50;;;0.20;;
75760;SDS011;64373;46.136;8.830;2024-01-06T12:51:17;0.22;;;0.22;;
75760;SDS011;64373;46.136;8.830;2024-01-06T12:53:42;0.10;;;0.10;;
75760;SDS011;64373;46.136;8.830;2024-01-06T12:56:08;0.20;;;0.00;;
75760;SDS011;64373;46.136;8.830;2024-01-06T12:58:33;0.10;;;0.10;;
75760;SDS011;64373;46.136;8.830;2024-01-06T13:00:59;0.20;;;0.20;;
75760;SDS011;64373;46.136;8.830;2024-01-06T13:03:25;0.05;;;0.00;;
75760;SDS011;64373;46.136;8.830;2024-01-06T13:05:50;0.10;;;0.00;;
75760;SDS011;64373;46.136;8.830;2024-01-06T13:08:16;0.00;;;0.00;;
75760;SDS011;64373;46.136;8.830;2024-01-06T13:10:42;0.17;;;0.10;;
75760;SDS011;64373;46.136;8.830;2024-01-06T13:13:08;0.20;;;0.20;;
75760;SDS011;64373;46.136;8.830;2024-01-06T13:15:34;0.22;;;0.20;;
75760;SDS011;64373;46.136;8.830;2024-01-06T13:17:59;0.10;;;0.10;;
75760;SDS011;64373;46.136;8.830;2024-01-06T13:20:25;0.32;;;0.20;;
75760;SDS011;64373;46.136;8.830;2024-01-06T13:22:50;0.55;;;0.30;;
75760;SDS011;64373;46.136;8.830;2024-01-06T13:25:16;0.10;;;0.10;;
75760;SDS011;64373;46.136;8.830;2024-01-06T13:27:42;0.10;;;0.05;;
75760;SDS011;64373;46.136;8.830;2024-01-06T13:30:08;0.20;;;0.10;;
75760;SDS011;64373;46.136;8.830;2024-01-06T13:32:35;0.00;;;0.00;;
75760;SDS011;64373;46.136;8.830;2024-01-06T13:35:00;0.10;;;0.00;;
75760;SDS011;64373;46.136;8.830;2024-01-06T13:37:29;0.00;;;0.00;;
75760;SDS011;64373;46.136;8.830;2024-01-06T13:39:56;0.03;;;0.03;;
75760;SDS011;64373;46.136;8.830;2024-01-06T13:42:22;0.13;;;0.00;;
75760;SDS011;64373;46.136;8.830;2024-01-06T13:44:47;0.00;;;0.00;;
75760;SDS011;64373;46.136;8.830;2024-01-06T13:47:13;0.10;;;0.10;;
75760;SDS011;64373;46.136;8.830;2024-01-06T13:49:39;0.10;;;0.10;;
75760;SDS011;64373;46.136;8.830;2024-01-06T13:52:05;0.10;;;0.10;;
75760;SDS011;64373;46.136;8.830;2024-01-06T13:54:33;0.20;;;0.10;;
75760;SDS011;64373;46.136;8.830;2024-01-06T13:56:59;0.10;;;0.10;;
75760;SDS011;64373;46.136;8.830;2024-01-06T13:59:25;0.10;;;0.10;;
75760;SDS011;64373;46.136;8.830;2024-01-06T14:01:50;0.10;;;0.10;;
75760;SDS011;64373;46.136;8.830;2024-01-06T14:04:16;0.10;;;0.00;;
75760;SDS011;64373;46.136;8.830;2024-01-06T14:06:42;0.10;;;0.10;;
75760;SDS011;64373;46.136;8.830;2024-01-06T14:09:07;0.00;;;0.00;;
75760;SDS011;64373;46.136;8.830;2024-01-06T14:11:33;0.00;;;0.00;;
75760;SDS011;64373;46.136;8.830;2024-01-06T14:13:59;0.03;;;0.00;;
75760;SDS011;64373;46.136;8.830;2024-01-06T14:16:25;0.00;;;0.00;;
75760;SDS011;64373;46.136;8.830;2024-01-06T14:18:51;0.00;;;0.00;;
75760;SDS011;64373;46.136;8.830;2024-01-06T14:21:17;0.00;;;0.00;;
75760;SDS011;64373;46.136;8.830;2024-01-06T14:23:47;0.10;;;0.10;;
75760;SDS011;64373;46.136;8.830;2024-01-06T14:26:15;0.10;;;0.00;;
75760;SDS011;64373;46.136;8.830;2024-01-06T14:31:10;0.43;;;0.10;;
75760;SDS011;64373;46.136;8.830;2024-01-06T14:33:36;0.15;;;0.10;;
75760;SDS011;64373;46.136;8.830;2024-01-06T14:36:02;0.10;;;0.10;;
75760;SDS011;64373;46.136;8.830;2024-01-06T14:38:28;0.08;;;0.08;;
75760;SDS011;64373;46.136;8.830;2024-01-06T14:40:53;0.05;;;0.00;;
75760;SDS011;64373;46.136;8.830;2024-01-06T14:43:19;0.10;;;0.10;;
75760;SDS011;64373;46.136;8.830;2024-01-06T14:45:46;0.82;;;0.10;;
75760;SDS011;64373;46.136;8.830;2024-01-06T14:48:12;0.00;;;0.00;;
75760;SDS011;64373;46.136;8.830;2024-01-06T14:50:37;0.05;;;0.00;;